Terminal Aerodrome Forecast
Issued by NWS Flagstaff, AZ

Home | Current Version | Previous Version | Text Only | Print | Product List | Glossary On
Versions: 1 2 3 4 5 6 7 8 9 10 11 12 13
000
FTUS45 KFGZ 251720
TAFINW
TAF
KINW 251720Z 2518/2618 VRB06KT P6SM FEW100
     FM252000 24010KT P6SM BKN090
      TEMPO 2520/2524 VRB15G30KT 5SM -TSRA BKN080CB
     FM260200 28010KT P6SM BKN110=

USA.gov is the U.S. government's official web portal to all federal, state and local government web resources and services.